Frio Town, Texas
Current Conditions -  °F | °C
As of 4:53 AM on Thursday 27 Nov 2014 (Local Time) from KCOT Reporting Station
Clear Clear  
Wind Chill: 50°   Ceiling: Unl
Heat Index: 50°   Visibility: 10mi
Dew Point: 36°   Wind: 10mph
Humidity: 59%   Direction: 50°NE
Pressure: 30.36"   Gusts: NA
Location:  28.8736°N, 99.1074°W
Report Text: KCOT 271053Z AUTO 05009KT 10SM CLR 10/02 A3036 RMK AO2 SLP274 T01000022
Loading
Personal Weather Stations






























Interactive Weather Map New forecast layout! Learn more

10-Day Weather Forecast

Advertisements
Track Severe Weather on mobile